createdAt,value
2017-12-25T00:00:23.486Z,73.11
2017-12-25T00:02:50.959Z,73.16
2017-12-25T00:05:18.414Z,73.11
2017-12-25T00:07:45.881Z,73.20
2017-12-25T00:10:13.335Z,73.27
2017-12-25T00:12:40.806Z,72.94
2017-12-25T00:15:08.274Z,73.14
2017-12-25T00:17:35.738Z,73.46
2017-12-25T00:20:03.186Z,73.51
2017-12-25T00:22:30.663Z,73.32
2017-12-25T00:24:58.114Z,73.41
2017-12-25T00:27:25.582Z,73.29
2017-12-25T00:29:53.026Z,73.58
2017-12-25T00:32:20.494Z,74.09
2017-12-25T00:34:47.951Z,74.03
2017-12-25T00:37:15.433Z,73.82
2017-12-25T00:39:42.878Z,73.75
2017-12-25T00:42:10.366Z,73.78
2017-12-25T00:44:37.818Z,74.11
2017-12-25T00:47:05.270Z,73.77
2017-12-25T00:49:32.741Z,73.90
2017-12-25T00:52:00.187Z,73.65
2017-12-25T00:54:27.663Z,73.89
2017-12-25T00:56:55.108Z,73.95
2017-12-25T00:59:22.578Z,73.80
2017-12-25T01:01:50.033Z,74.06
2017-12-25T01:04:17.498Z,73.93
2017-12-25T01:06:44.949Z,74.05
2017-12-25T01:09:12.417Z,74.18
2017-12-25T01:11:39.866Z,74.43
2017-12-25T01:14:07.339Z,74.11
2017-12-25T01:16:34.806Z,74.03
2017-12-25T01:19:02.278Z,74.48
2017-12-25T01:21:29.728Z,74.29
2017-12-25T01:23:57.193Z,74.37
2017-12-25T01:26:24.651Z,74.26
2017-12-25T01:28:52.127Z,73.81
2017-12-25T01:31:19.573Z,73.90
2017-12-25T01:33:47.039Z,74.01
2017-12-25T01:36:14.487Z,74.19
2017-12-25T01:38:41.974Z,74.07
2017-12-25T01:41:09.419Z,74.23
2017-12-25T01:43:36.899Z,74.21
2017-12-25T01:46:04.347Z,74.64
2017-12-25T01:48:31.811Z,74.73
2017-12-25T01:50:59.283Z,75.00
2017-12-25T01:53:26.755Z,74.46
2017-12-25T01:55:54.207Z,74.33
2017-12-25T01:58:29.305Z,74.17
2017-12-25T02:04:16.238Z,74.41
2017-12-25T02:06:55.521Z,74.20
2017-12-25T02:09:22.986Z,74.21
2017-12-25T02:11:50.443Z,73.71
2017-12-25T02:14:17.906Z,73.47
2017-12-25T02:16:45.350Z,73.72
2017-12-25T02:19:12.821Z,73.63
2017-12-25T02:21:40.267Z,73.46
2017-12-25T02:24:07.738Z,73.22
2017-12-25T02:26:35.182Z,73.25
2017-12-25T02:29:02.658Z,73.36
2017-12-25T02:31:30.106Z,73.61
2017-12-25T02:33:57.578Z,73.54
2017-12-25T02:36:25.041Z,73.38
2017-12-25T02:38:52.500Z,73.54
2017-12-25T02:41:19.975Z,73.86
2017-12-25T02:43:47.426Z,73.57
2017-12-25T02:46:14.904Z,73.85
2017-12-25T02:48:42.361Z,73.82
2017-12-25T02:51:09.826Z,73.87
2017-12-25T02:53:37.281Z,73.88
2017-12-25T02:56:04.765Z,74.37
2017-12-25T02:58:32.308Z,74.23
2017-12-25T03:00:59.777Z,74.66
2017-12-25T03:03:27.231Z,74.57
2017-12-25T03:05:54.711Z,75.05
2017-12-25T03:08:22.171Z,74.67
2017-12-25T03:10:49.641Z,74.39
2017-12-25T03:13:17.094Z,74.13
2017-12-25T03:15:44.569Z,74.03
2017-12-25T03:18:12.023Z,72.99
2017-12-25T03:20:39.499Z,72.73
2017-12-25T03:23:06.946Z,72.78
2017-12-25T03:25:34.410Z,72.91
2017-12-25T03:28:01.863Z,72.62
2017-12-25T03:30:29.462Z,72.58
2017-12-25T03:32:56.910Z,72.85
2017-12-25T03:35:24.378Z,72.56
2017-12-25T03:37:51.829Z,72.69
2017-12-25T03:40:19.291Z,72.79
2017-12-25T03:42:46.744Z,72.34
2017-12-25T03:45:14.231Z,72.60
2017-12-25T03:47:41.677Z,72.50
2017-12-25T03:50:09.150Z,72.63
2017-12-25T03:52:36.604Z,72.71
2017-12-25T03:55:04.076Z,72.49
2017-12-25T03:57:31.527Z,72.70
2017-12-25T03:59:59.010Z,72.87
2017-12-25T04:02:26.463Z,72.77
2017-12-25T04:04:53.919Z,72.84
2017-12-25T04:07:21.387Z,72.44
2017-12-25T04:09:48.832Z,72.50
2017-12-25T04:12:16.351Z,72.57
2017-12-25T04:14:43.810Z,72.77
2017-12-25T04:17:11.274Z,73.11
2017-12-25T04:19:38.730Z,72.69
2017-12-25T04:22:06.213Z,72.27
2017-12-25T04:24:33.667Z,72.30
2017-12-25T04:27:01.140Z,72.07
2017-12-25T04:29:28.586Z,71.79
2017-12-25T04:31:56.059Z,71.74
2017-12-25T04:34:23.514Z,71.10
2017-12-25T04:36:50.980Z,71.20
2017-12-25T04:39:18.430Z,71.54
2017-12-25T04:41:45.902Z,71.87
2017-12-25T04:44:13.345Z,71.94
2017-12-25T04:46:40.823Z,72.15
2017-12-25T04:49:08.274Z,72.03
2017-12-25T04:51:35.743Z,72.17
2017-12-25T04:54:03.190Z,72.13
2017-12-25T04:56:30.659Z,72.05
2017-12-25T04:58:58.115Z,72.16
2017-12-25T05:01:25.591Z,72.34
2017-12-25T05:03:53.047Z,72.02
2017-12-25T05:06:20.519Z,71.29
2017-12-25T05:08:47.975Z,71.63
2017-12-25T05:11:15.457Z,71.18
2017-12-25T05:13:42.910Z,70.64
2017-12-25T05:16:10.382Z,70.62
2017-12-25T05:18:37.830Z,70.68
2017-12-25T05:21:05.283Z,70.42
2017-12-25T05:23:32.759Z,70.36
2017-12-25T05:26:00.210Z,69.93
2017-12-25T05:28:27.687Z,69.91
2017-12-25T05:30:55.139Z,70.37
2017-12-25T05:33:22.610Z,70.41
2017-12-25T05:35:50.058Z,70.77
2017-12-25T05:38:17.527Z,70.90
2017-12-25T05:40:44.974Z,70.80
2017-12-25T05:43:12.447Z,70.29
2017-12-25T05:45:39.907Z,69.87
2017-12-25T05:48:07.374Z,69.98
2017-12-25T05:50:34.819Z,70.16
2017-12-25T05:53:02.290Z,70.69
2017-12-25T05:55:29.737Z,70.95
2017-12-25T05:57:57.212Z,71.37
2017-12-25T06:00:24.671Z,71.36
2017-12-25T06:02:52.147Z,71.44
2017-12-25T06:05:19.603Z,71.62
2017-12-25T06:07:47.074Z,71.74
2017-12-25T06:10:14.531Z,71.49
2017-12-25T06:12:42.002Z,71.46
2017-12-25T06:15:09.454Z,71.60
2017-12-25T06:17:36.931Z,71.70
2017-12-25T06:20:04.391Z,72.02
2017-12-25T06:22:31.860Z,72.21
2017-12-25T06:24:59.314Z,72.14
2017-12-25T06:27:26.786Z,72.02
2017-12-25T06:29:54.231Z,72.34
2017-12-25T06:32:21.694Z,72.53
2017-12-25T06:34:49.139Z,72.29
2017-12-25T06:37:16.614Z,72.33
2017-12-25T06:39:44.067Z,72.31
2017-12-25T06:42:11.515Z,72.24
2017-12-25T06:44:38.983Z,72.55
2017-12-25T06:47:06.430Z,72.40
2017-12-25T06:49:33.898Z,72.49
2017-12-25T06:52:01.360Z,72.63
2017-12-25T06:54:28.826Z,72.26
2017-12-25T06:56:56.282Z,72.21
2017-12-25T06:59:23.773Z,72.30
2017-12-25T07:01:51.228Z,72.24
2017-12-25T07:04:18.695Z,72.59
2017-12-25T07:06:46.147Z,72.44
2017-12-25T07:09:13.610Z,72.61
2017-12-25T07:11:41.068Z,72.60
2017-12-25T07:14:08.539Z,72.27
2017-12-25T07:16:35.982Z,72.58
2017-12-25T07:19:03.442Z,72.31
2017-12-25T07:21:30.911Z,72.20
2017-12-25T07:23:58.374Z,72.08
2017-12-25T07:26:25.838Z,72.06
2017-12-25T07:28:53.305Z,72.16
2017-12-25T07:31:20.759Z,72.38
2017-12-25T07:33:48.226Z,72.10
2017-12-25T07:36:15.666Z,72.50
2017-12-25T07:38:43.126Z,72.56
2017-12-25T07:41:10.580Z,72.93
2017-12-25T07:43:38.050Z,72.51
2017-12-25T07:46:05.506Z,72.17
2017-12-25T07:48:32.970Z,72.29
2017-12-25T07:51:00.418Z,72.31
2017-12-25T07:53:27.882Z,72.67
2017-12-25T07:55:55.330Z,72.42
2017-12-25T07:58:22.790Z,72.44
2017-12-25T08:00:50.231Z,72.36
2017-12-25T08:03:17.675Z,72.31
2017-12-25T08:05:45.138Z,72.04
2017-12-25T08:08:12.588Z,71.78
2017-12-25T08:10:40.062Z,71.89
2017-12-25T08:13:07.514Z,71.58
2017-12-25T08:15:34.978Z,71.58
2017-12-25T08:18:02.427Z,72.25
2017-12-25T08:20:29.893Z,72.17
2017-12-25T08:22:57.339Z,72.19
2017-12-25T08:25:24.807Z,72.23
2017-12-25T08:27:52.255Z,72.05
2017-12-25T08:30:19.719Z,71.75
2017-12-25T08:32:47.175Z,71.58
2017-12-25T08:35:14.637Z,71.33
2017-12-25T08:37:42.083Z,71.54
2017-12-25T08:40:09.547Z,71.80
2017-12-25T08:42:36.997Z,71.72
2017-12-25T08:45:04.462Z,71.74
2017-12-25T08:47:31.902Z,71.34
2017-12-25T08:49:59.370Z,70.85
2017-12-25T08:52:26.809Z,70.43
2017-12-25T08:54:54.275Z,70.16
2017-12-25T08:57:21.718Z,70.15
2017-12-25T08:59:49.182Z,70.23
2017-12-25T09:02:16.623Z,70.56
2017-12-25T09:04:44.086Z,71.28
2017-12-25T09:07:11.530Z,72.17
2017-12-25T09:09:38.998Z,71.97
2017-12-25T09:12:06.447Z,71.82
2017-12-25T09:14:33.917Z,71.03
2017-12-25T09:17:01.362Z,70.66
2017-12-25T09:19:28.829Z,70.56
2017-12-25T09:21:56.274Z,70.36
2017-12-25T09:24:23.718Z,69.82
2017-12-25T09:26:51.178Z,69.58
2017-12-25T09:29:18.618Z,69.14
2017-12-25T09:31:46.086Z,69.23
2017-12-25T09:34:13.542Z,69.39
2017-12-25T09:36:41.006Z,69.09
2017-12-25T09:39:08.467Z,68.90
2017-12-25T09:41:35.926Z,69.09
2017-12-25T09:44:03.371Z,68.89
2017-12-25T09:46:30.834Z,68.37
2017-12-25T09:48:58.278Z,68.07
2017-12-25T09:51:25.747Z,68.20
2017-12-25T09:53:53.191Z,67.99
2017-12-25T09:56:20.654Z,67.98
2017-12-25T09:58:48.111Z,67.60
2017-12-25T10:01:15.574Z,67.56
2017-12-25T10:03:43.023Z,67.52
2017-12-25T10:06:10.486Z,66.82
2017-12-25T10:08:37.933Z,66.59
2017-12-25T10:11:05.395Z,66.51
2017-12-25T10:13:32.838Z,66.28
2017-12-25T10:16:00.311Z,66.69
2017-12-25T10:18:27.757Z,66.37
2017-12-25T10:20:55.222Z,66.76
2017-12-25T10:23:22.768Z,66.73
2017-12-25T10:25:50.250Z,66.76
2017-12-25T10:28:17.713Z,66.07
2017-12-25T10:30:45.173Z,65.66
2017-12-25T10:33:12.622Z,65.91
2017-12-25T10:35:40.086Z,65.57
2017-12-25T10:38:07.531Z,65.20
2017-12-25T10:40:35.018Z,65.15
2017-12-25T10:43:02.466Z,65.45
2017-12-25T10:45:29.917Z,64.49
2017-12-25T10:47:57.390Z,63.73
2017-12-25T10:50:24.845Z,64.31
2017-12-25T10:52:52.310Z,64.23
2017-12-25T10:55:19.767Z,63.83
2017-12-25T10:57:47.238Z,61.91
2017-12-25T11:00:14.698Z,62.44
2017-12-25T11:02:42.166Z,62.31
2017-12-25T11:05:09.638Z,62.10
2017-12-25T11:07:37.105Z,61.97
2017-12-25T11:10:04.586Z,61.99
2017-12-25T11:12:32.052Z,61.55
2017-12-25T11:14:59.511Z,61.27
2017-12-25T11:17:26.979Z,60.32
2017-12-25T11:19:54.422Z,60.21
2017-12-25T11:22:21.894Z,60.42
2017-12-25T11:24:49.347Z,60.40
2017-12-25T11:27:16.822Z,60.16
2017-12-25T11:29:44.286Z,59.71
2017-12-25T11:32:11.763Z,60.37
2017-12-25T11:34:39.255Z,60.86
2017-12-25T11:37:06.703Z,61.02
2017-12-25T11:39:34.156Z,61.69
2017-12-25T11:42:01.623Z,61.45
2017-12-25T11:44:29.069Z,61.67
2017-12-25T11:46:56.556Z,61.67
2017-12-25T11:49:24.002Z,61.13
2017-12-25T11:51:51.466Z,61.00
2017-12-25T11:54:18.920Z,60.35
2017-12-25T11:56:46.385Z,60.59
2017-12-25T11:59:13.838Z,60.96
2017-12-25T12:01:41.306Z,61.09
2017-12-25T12:04:08.754Z,61.35
2017-12-25T12:06:36.262Z,61.87
2017-12-25T12:09:03.719Z,62.94
2017-12-25T12:11:31.167Z,63.35
2017-12-25T12:13:58.658Z,63.08
2017-12-25T12:16:26.101Z,63.91
2017-12-25T12:18:53.571Z,64.48
2017-12-25T12:21:21.014Z,64.18
2017-12-25T12:23:48.482Z,64.03
2017-12-25T12:26:15.969Z,64.31
2017-12-25T12:28:43.425Z,64.38
2017-12-25T12:31:10.869Z,64.66
2017-12-25T12:33:38.339Z,64.48
2017-12-25T12:36:05.786Z,64.49
2017-12-25T12:38:33.258Z,63.85
2017-12-25T12:41:00.814Z,64.04
2017-12-25T12:43:28.316Z,63.07
2017-12-25T12:45:55.769Z,63.26
2017-12-25T12:48:23.322Z,63.37
2017-12-25T12:50:50.782Z,62.99
2017-12-25T12:53:18.253Z,63.54
2017-12-25T12:55:45.703Z,63.74
2017-12-25T12:58:13.170Z,63.77
2017-12-25T13:00:40.617Z,64.24
2017-12-25T13:03:08.086Z,63.99
2017-12-25T13:05:35.534Z,63.95
2017-12-25T13:08:02.995Z,64.03
2017-12-25T13:10:30.447Z,64.47
2017-12-25T13:12:57.948Z,64.73
2017-12-25T13:15:25.442Z,65.52
2017-12-25T13:17:52.899Z,66.02
2017-12-25T13:20:20.347Z,65.95
2017-12-25T13:22:47.819Z,65.45
2017-12-25T13:25:15.266Z,64.05
2017-12-25T13:27:42.714Z,63.34
2017-12-25T13:30:10.188Z,63.06
2017-12-25T13:32:37.636Z,63.77
2017-12-25T13:35:05.099Z,63.48
2017-12-25T13:37:32.546Z,63.69
2017-12-25T13:40:00.018Z,64.09
2017-12-25T13:42:27.476Z,64.42
2017-12-25T13:44:54.943Z,64.95
2017-12-25T13:47:22.391Z,64.78
2017-12-25T13:49:49.854Z,64.90
2017-12-25T13:52:17.302Z,64.74
2017-12-25T13:54:44.762Z,65.09
2017-12-25T13:57:12.206Z,64.73
2017-12-25T13:59:39.672Z,64.76
2017-12-25T14:02:07.119Z,64.63
2017-12-25T14:04:34.582Z,65.37
2017-12-25T14:07:02.036Z,65.27
2017-12-25T14:09:29.498Z,65.36
2017-12-25T14:11:56.948Z,64.89
2017-12-25T14:14:24.410Z,65.54
2017-12-25T14:16:52.530Z,65.57
2017-12-25T14:19:20.939Z,65.57
2017-12-25T14:21:48.819Z,66.05
2017-12-25T14:24:16.383Z,66.07
2017-12-25T14:26:43.822Z,65.95
2017-12-25T14:29:11.287Z,66.27
2017-12-25T14:31:38.755Z,66.41
2017-12-25T14:34:06.240Z,66.58
2017-12-25T14:36:33.794Z,66.82
2017-12-25T14:39:01.287Z,67.20
2017-12-25T14:41:28.727Z,67.62
2017-12-25T14:43:56.186Z,67.84
2017-12-25T14:46:23.635Z,67.52
2017-12-25T14:48:51.114Z,67.66
2017-12-25T14:51:18.555Z,68.16
2017-12-25T14:53:46.138Z,67.24
2017-12-25T14:56:13.642Z,67.17
2017-12-25T14:58:41.083Z,67.89
2017-12-25T15:01:08.547Z,67.10
2017-12-25T15:03:35.991Z,67.93
2017-12-25T15:06:03.454Z,68.23
2017-12-25T15:10:57.642Z,67.88
2017-12-25T15:13:25.083Z,68.31
2017-12-25T15:15:52.563Z,68.79
2017-12-25T15:18:20.011Z,68.32
2017-12-25T15:20:47.483Z,68.54
2017-12-25T15:23:14.927Z,69.12
2017-12-25T15:25:42.471Z,68.77
2017-12-25T15:28:09.958Z,68.68
2017-12-25T15:30:37.923Z,68.42
2017-12-25T15:33:05.371Z,68.86
2017-12-25T15:35:32.829Z,68.73
2017-12-25T15:38:00.271Z,68.80
2017-12-25T15:40:27.736Z,68.69
2017-12-25T15:42:55.229Z,68.53
2017-12-25T15:45:22.698Z,68.59
2017-12-25T15:47:50.150Z,68.35
2017-12-25T15:50:17.611Z,68.62
2017-12-25T15:52:45.050Z,68.78
2017-12-25T15:55:12.518Z,68.46
2017-12-25T15:57:39.990Z,68.14
2017-12-25T16:00:07.463Z,68.26
2017-12-25T16:02:34.903Z,68.41
2017-12-25T16:05:02.374Z,68.49
2017-12-25T16:07:29.833Z,68.62
2017-12-25T16:09:57.271Z,68.66
2017-12-25T16:12:24.744Z,68.92
2017-12-25T16:14:52.182Z,68.84
2017-12-25T16:17:19.652Z,68.99
2017-12-25T16:19:47.094Z,69.10
2017-12-25T16:22:14.559Z,68.64
2017-12-25T16:24:42.022Z,68.82
2017-12-25T16:27:09.483Z,68.63
2017-12-25T16:29:36.918Z,69.20
2017-12-25T16:32:04.379Z,69.31
2017-12-25T16:34:31.826Z,68.25
2017-12-25T16:36:59.287Z,68.22
2017-12-25T16:39:26.729Z,67.88
2017-12-25T16:41:54.212Z,67.99
2017-12-25T16:44:21.633Z,68.17
2017-12-25T16:46:49.094Z,68.62
2017-12-25T16:49:16.534Z,68.05
2017-12-25T16:51:44.013Z,68.08
2017-12-25T16:54:11.516Z,68.07
2017-12-25T16:56:38.950Z,68.18
2017-12-25T16:59:06.390Z,67.83
2017-12-25T17:01:33.851Z,68.42
2017-12-25T17:04:01.292Z,68.33
2017-12-25T17:06:28.751Z,68.82
2017-12-25T17:08:56.198Z,68.99
2017-12-25T17:11:23.666Z,69.05
2017-12-25T17:13:51.107Z,68.63
2017-12-25T17:16:18.566Z,68.74
2017-12-25T17:18:46.007Z,68.46
2017-12-25T17:21:13.475Z,68.50
2017-12-25T17:23:40.918Z,68.61
2017-12-25T17:26:08.378Z,68.58
2017-12-25T17:28:35.823Z,68.15
2017-12-25T17:31:03.266Z,68.29
2017-12-25T17:33:30.730Z,68.30
2017-12-25T17:35:58.172Z,68.53
2017-12-25T17:38:25.631Z,68.89
2017-12-25T17:40:53.087Z,68.79
2017-12-25T17:43:20.546Z,68.91
2017-12-25T17:45:47.978Z,68.24
2017-12-25T17:48:15.439Z,68.80
2017-12-25T17:50:42.886Z,69.06
2017-12-25T17:53:10.395Z,69.30
2017-12-25T17:55:37.838Z,69.78
2017-12-25T17:58:05.302Z,69.54
2017-12-25T18:00:32.742Z,69.32
2017-12-25T18:03:00.200Z,69.39
2017-12-25T18:05:27.648Z,69.41
2017-12-25T18:07:55.111Z,69.77
2017-12-25T18:10:22.550Z,69.62
2017-12-25T18:12:50.015Z,70.45
2017-12-25T18:15:17.453Z,70.88
2017-12-25T18:17:44.911Z,70.71
2017-12-25T18:20:12.354Z,70.19
2017-12-25T18:22:39.815Z,70.18
2017-12-25T18:25:07.254Z,69.87
2017-12-25T18:27:34.717Z,69.59
2017-12-25T18:30:02.158Z,70.48
2017-12-25T18:32:29.622Z,70.22
2017-12-25T18:34:57.062Z,69.87
2017-12-25T18:37:24.527Z,69.65
2017-12-25T18:39:51.972Z,69.53
2017-12-25T18:42:19.426Z,69.41
2017-12-25T18:44:46.869Z,68.88
2017-12-25T18:47:14.331Z,69.03
2017-12-25T18:49:41.775Z,69.44
2017-12-25T18:52:09.214Z,69.13
2017-12-25T18:54:36.682Z,68.91
2017-12-25T18:57:04.122Z,68.75
2017-12-25T18:59:31.582Z,68.88
2017-12-25T19:01:59.023Z,68.73
2017-12-25T19:04:26.486Z,69.25
2017-12-25T19:06:53.926Z,69.85
2017-12-25T19:09:21.394Z,69.98
2017-12-25T19:11:48.838Z,69.93
2017-12-25T19:14:16.298Z,69.75
2017-12-25T19:16:43.738Z,69.96
2017-12-25T19:19:11.198Z,70.13
2017-12-25T19:21:38.639Z,69.96
2017-12-25T19:24:06.103Z,69.59
2017-12-25T19:26:33.545Z,70.02
2017-12-25T19:29:01.014Z,69.24
2017-12-25T19:31:28.454Z,69.80
2017-12-25T19:33:55.918Z,69.57
2017-12-25T19:36:23.358Z,69.80
2017-12-25T19:38:50.813Z,69.15
2017-12-25T19:41:18.255Z,68.92
2017-12-25T19:43:45.715Z,69.46
2017-12-25T19:46:13.158Z,69.69
2017-12-25T19:48:40.631Z,70.18
2017-12-25T19:51:08.071Z,70.24
2017-12-25T19:53:35.535Z,70.46
2017-12-25T19:56:02.975Z,69.35
2017-12-25T19:58:30.442Z,69.65
2017-12-25T20:00:57.885Z,69.48
2017-12-25T20:03:25.378Z,68.74
2017-12-25T20:05:52.820Z,69.12
2017-12-25T20:08:20.279Z,69.04
2017-12-25T20:10:47.718Z,68.78
2017-12-25T20:13:15.162Z,68.85
2017-12-25T20:15:42.618Z,68.87
2017-12-25T20:18:10.054Z,68.75
2017-12-25T20:20:37.518Z,68.87
2017-12-25T20:23:04.959Z,69.79
2017-12-25T20:25:32.422Z,69.55
2017-12-25T20:27:59.863Z,69.00
2017-12-25T20:30:27.323Z,69.04
2017-12-25T20:32:54.774Z,69.24
2017-12-25T20:35:22.230Z,69.41
2017-12-25T20:37:49.683Z,69.53
2017-12-25T20:40:17.146Z,70.18
2017-12-25T20:42:44.594Z,70.30
2017-12-25T20:45:12.054Z,70.25
2017-12-25T20:47:39.499Z,70.57
2017-12-25T20:50:06.963Z,70.66
2017-12-25T20:52:34.410Z,70.57
2017-12-25T20:55:01.887Z,71.20
2017-12-25T20:57:29.358Z,71.19
2017-12-25T20:59:56.830Z,71.06
2017-12-25T21:02:24.291Z,71.36
2017-12-25T21:04:51.770Z,71.93
2017-12-25T21:07:19.228Z,71.91
2017-12-25T21:09:46.707Z,71.63
2017-12-25T21:12:14.164Z,71.55
2017-12-25T21:14:41.638Z,71.84
2017-12-25T21:17:09.094Z,72.30
2017-12-25T21:19:36.567Z,72.46
2017-12-25T21:22:04.020Z,72.41
2017-12-25T21:24:31.491Z,72.10
2017-12-25T21:26:58.951Z,72.78
2017-12-25T21:29:26.463Z,72.92
2017-12-25T21:31:53.918Z,72.74
2017-12-25T21:34:21.402Z,72.35
2017-12-25T21:36:48.847Z,72.55
2017-12-25T21:39:16.302Z,72.69
2017-12-25T21:41:43.818Z,72.75
2017-12-25T21:44:11.288Z,72.60
2017-12-25T21:46:39.569Z,72.84
2017-12-25T21:49:07.027Z,72.73
2017-12-25T21:51:34.579Z,73.08
2017-12-25T21:54:02.142Z,73.12
2017-12-25T21:56:29.606Z,73.16
2017-12-25T21:58:57.070Z,73.01
2017-12-25T22:01:24.570Z,72.98
2017-12-25T22:03:52.020Z,72.97
2017-12-25T22:06:19.494Z,72.69
2017-12-25T22:08:46.948Z,72.43
2017-12-25T22:11:14.439Z,73.11
2017-12-25T22:13:41.878Z,72.98
2017-12-25T22:16:09.342Z,73.12
2017-12-25T22:18:36.782Z,72.72
2017-12-25T22:21:04.246Z,72.64
2017-12-25T22:23:31.690Z,73.05
2017-12-25T22:25:59.157Z,73.15
2017-12-25T22:28:26.698Z,73.06
2017-12-25T22:30:54.164Z,72.93
2017-12-25T22:33:21.619Z,73.74
2017-12-25T22:35:49.103Z,74.22
2017-12-25T22:38:16.550Z,73.93
2017-12-25T22:40:44.014Z,73.59
2017-12-25T22:43:11.463Z,73.76
2017-12-25T22:45:38.936Z,74.08
2017-12-25T22:48:06.380Z,73.89
2017-12-25T22:50:33.851Z,74.15
2017-12-25T22:53:01.296Z,73.87
2017-12-25T22:55:28.733Z,74.34
2017-12-25T22:57:56.203Z,73.98
2017-12-25T23:00:23.659Z,74.28
2017-12-25T23:02:51.130Z,73.93
2017-12-25T23:05:18.580Z,74.10
2017-12-25T23:07:46.041Z,74.60
2017-12-25T23:10:13.503Z,74.05
2017-12-25T23:12:40.967Z,73.73
2017-12-25T23:15:08.422Z,74.17
2017-12-25T23:17:35.897Z,74.02
2017-12-25T23:20:03.351Z,74.36
2017-12-25T23:22:30.815Z,74.50
2017-12-25T23:24:58.276Z,73.99
2017-12-25T23:27:25.850Z,74.23
2017-12-25T23:29:53.291Z,73.95
2017-12-25T23:32:20.759Z,74.13
2017-12-25T23:34:48.221Z,74.38
2017-12-25T23:37:15.691Z,74.26
2017-12-25T23:39:43.143Z,74.22
2017-12-25T23:42:10.610Z,74.22
2017-12-25T23:44:38.054Z,74.32
2017-12-25T23:47:05.527Z,74.42
2017-12-25T23:49:32.979Z,74.28
2017-12-25T23:52:00.451Z,74.28
2017-12-25T23:54:27.901Z,74.33
2017-12-25T23:56:55.366Z,74.71
2017-12-25T23:59:22.810Z,74.99
